createdAt,value
2022-08-02T00:02:36.877Z,1.48
2022-08-02T00:06:39.242Z,1.35
2022-08-02T00:10:41.308Z,1.30
2022-08-02T00:14:43.367Z,1.60
2022-08-02T00:18:45.611Z,1.42
2022-08-02T00:22:47.634Z,1.42
2022-08-02T00:26:49.703Z,1.60
2022-08-02T00:30:52.171Z,1.30
2022-08-02T00:34:54.209Z,1.67
2022-08-02T00:38:56.852Z,1.50
2022-08-02T00:43:07.254Z,1.25
2022-08-02T00:47:09.865Z,1.50
2022-08-02T00:51:12.896Z,1.40
2022-08-02T00:55:17.463Z,1.30
2022-08-02T00:59:25.472Z,1.30
2022-08-02T01:03:28.047Z,1.30
2022-08-02T01:07:30.107Z,1.13
2022-08-02T01:11:32.798Z,1.30
2022-08-02T01:15:43.889Z,1.00
2022-08-02T01:20:08.946Z,1.05
2022-08-02T01:24:19.055Z,1.17
2022-08-02T01:28:40.973Z,1.20
2022-08-02T01:32:48.940Z,1.17
2022-08-02T01:36:58.737Z,1.20
2022-08-02T01:41:03.742Z,1.13
2022-08-02T01:45:07.999Z,1.38
2022-08-02T01:49:15.931Z,1.40
2022-08-02T01:53:20.242Z,1.50
2022-08-02T01:57:24.513Z,1.23
2022-08-02T02:01:27.074Z,1.10
2022-08-02T02:05:32.185Z,1.40
2022-08-02T02:09:49.262Z,1.25
2022-08-02T02:13:53.260Z,1.40
2022-08-02T02:18:12.568Z,1.30
2022-08-02T02:22:15.737Z,1.52
2022-08-02T02:26:20.876Z,1.45
2022-08-02T02:30:37.388Z,1.50
2022-08-02T02:34:43.248Z,1.50
2022-08-02T02:38:47.135Z,1.40
2022-08-02T02:42:51.909Z,1.40
2022-08-02T02:46:55.350Z,1.17
2022-08-02T02:50:59.548Z,1.60
2022-08-02T02:55:02.847Z,1.70
2022-08-02T02:59:07.045Z,1.60
2022-08-02T03:03:09.565Z,1.52
2022-08-02T03:07:11.641Z,1.50
2022-08-02T03:11:14.346Z,1.90
2022-08-02T03:15:17.817Z,2.10
2022-08-02T03:19:21.796Z,1.90
2022-08-02T03:23:23.867Z,1.90
2022-08-02T03:27:25.943Z,1.90
2022-08-02T03:31:28.519Z,2.13
2022-08-02T03:35:35.408Z,1.73
2022-08-02T03:39:38.318Z,1.88
2022-08-02T03:43:54.262Z,1.80
2022-08-02T03:47:58.888Z,1.80
2022-08-02T03:52:01.904Z,1.50
2022-08-02T03:56:05.828Z,1.70
2022-08-02T04:00:09.643Z,1.48
2022-08-02T04:04:14.335Z,1.60
2022-08-02T04:08:36.857Z,1.70
2022-08-02T04:12:38.865Z,1.80
2022-08-02T04:16:46.380Z,1.90
2022-08-02T04:20:51.464Z,1.73
2022-08-02T04:24:58.730Z,1.80
2022-08-02T04:33:03.109Z,1.83
2022-08-02T04:37:05.798Z,1.77
2022-08-02T04:41:08.502Z,1.90
2022-08-02T04:45:11.569Z,1.60
2022-08-02T04:49:18.907Z,1.70
2022-08-02T04:53:21.065Z,1.50
2022-08-02T04:57:51.229Z,1.50
2022-08-02T05:01:55.195Z,1.17
2022-08-02T05:05:57.268Z,1.48
2022-08-02T05:09:59.441Z,1.40
2022-08-02T05:14:01.856Z,1.50
2022-08-02T05:18:03.993Z,1.30
2022-08-02T05:22:06.040Z,1.42
2022-08-02T05:26:08.104Z,1.60
2022-08-02T05:30:10.910Z,1.60
2022-08-02T05:34:13.005Z,1.40
2022-08-02T05:38:15.085Z,1.48
2022-08-02T05:42:17.176Z,1.40
2022-08-02T05:46:19.217Z,1.20
2022-08-02T05:50:21.729Z,1.08
2022-08-02T05:55:13.242Z,1.20
2022-08-02T05:59:32.412Z,1.60
2022-08-02T06:03:43.773Z,1.27
2022-08-02T06:07:48.157Z,1.27
2022-08-02T06:12:02.573Z,1.27
2022-08-02T06:16:05.917Z,1.50
2022-08-02T06:20:16.468Z,1.20
2022-08-02T06:24:19.819Z,1.45
2022-08-02T06:28:22.883Z,1.38
2022-08-02T06:32:27.206Z,1.10
2022-08-02T06:36:42.435Z,1.25
2022-08-02T06:41:05.228Z,1.30
2022-08-02T06:45:07.892Z,1.40
2022-08-02T06:49:10.043Z,1.30
2022-08-02T06:53:12.456Z,1.30
2022-08-02T06:57:14.546Z,1.40
2022-08-02T07:01:19.185Z,1.48
2022-08-02T07:05:21.485Z,1.30
2022-08-02T07:09:23.675Z,1.27
2022-08-02T07:13:25.698Z,0.82
2022-08-02T07:17:28.598Z,0.93
2022-08-02T07:21:57.878Z,0.90
2022-08-02T07:26:03.228Z,0.90
2022-08-02T07:30:07.432Z,0.95
2022-08-02T07:34:09.483Z,0.80
2022-08-02T07:38:11.544Z,1.02
2022-08-02T07:42:13.876Z,0.93
2022-08-02T07:46:16.169Z,1.02
2022-08-02T07:50:20.320Z,0.80
2022-08-02T07:54:22.615Z,0.82
2022-08-02T07:58:24.690Z,0.82
2022-08-02T08:02:26.735Z,0.80
2022-08-02T08:06:29.366Z,0.63
2022-08-02T08:10:32.224Z,0.80
2022-08-02T08:14:34.481Z,0.63
2022-08-02T08:18:36.663Z,0.60
2022-08-02T08:22:38.635Z,0.70
2022-08-02T08:26:41.036Z,0.95
2022-08-02T08:30:43.060Z,0.90
2022-08-02T08:34:48.366Z,0.85
2022-08-02T08:38:50.478Z,0.80
2022-08-02T08:42:52.952Z,0.88
2022-08-02T08:46:56.558Z,0.75
2022-08-02T08:51:10.461Z,0.88
2022-08-02T08:55:14.000Z,0.70
2022-08-02T08:59:16.054Z,0.90
2022-08-02T09:03:18.335Z,0.90
2022-08-02T09:07:20.383Z,1.05
2022-08-02T09:11:26.014Z,1.00
2022-08-02T09:15:28.272Z,1.08
2022-08-02T09:19:30.294Z,1.00
2022-08-02T09:23:38.867Z,1.00
2022-08-02T09:27:40.936Z,0.95
2022-08-02T09:31:49.441Z,0.88
2022-08-02T09:36:06.634Z,0.90
2022-08-02T09:40:12.006Z,0.90
2022-08-02T09:44:16.488Z,1.00
2022-08-02T09:48:18.650Z,1.00
2022-08-02T09:52:43.304Z,0.85
2022-08-02T09:56:50.896Z,0.90
2022-08-02T10:00:54.800Z,0.95
2022-08-02T10:04:56.888Z,1.10
2022-08-02T10:09:00.039Z,1.10
2022-08-02T10:13:03.017Z,1.20
2022-08-02T10:17:06.660Z,0.95
2022-08-02T10:21:23.926Z,0.80
2022-08-02T10:25:27.243Z,1.00
2022-08-02T10:29:54.051Z,0.75
2022-08-02T10:34:00.028Z,1.15
2022-08-02T10:38:07.923Z,0.90
2022-08-02T10:42:11.288Z,0.90
2022-08-02T10:46:32.909Z,0.80
2022-08-02T10:50:47.156Z,1.05
2022-08-02T10:55:03.252Z,1.00
2022-08-02T10:59:47.127Z,0.77
2022-08-02T11:03:49.595Z,0.82
2022-08-02T11:07:51.740Z,0.80
2022-08-02T11:12:05.796Z,1.00
2022-08-02T11:16:11.561Z,0.85
2022-08-02T11:20:16.555Z,0.77
2022-08-02T11:24:39.030Z,0.98
2022-08-02T11:28:41.170Z,0.95
2022-08-02T11:32:43.357Z,0.90
2022-08-02T11:36:49.511Z,0.90
2022-08-02T11:40:57.631Z,0.90
2022-08-02T11:44:59.976Z,1.00
2022-08-02T11:49:15.869Z,0.70
2022-08-02T11:53:18.018Z,1.00
2022-08-02T11:57:21.844Z,0.90
2022-08-02T12:01:23.925Z,0.98
2022-08-02T12:05:51.318Z,1.00
2022-08-02T12:09:48.938Z,0.88
2022-08-02T12:13:56.598Z,0.65
2022-08-02T12:18:18.122Z,0.98
2022-08-02T12:22:27.457Z,1.00
2022-08-02T12:26:30.487Z,0.90
2022-08-02T12:30:49.775Z,0.90
2022-08-02T12:35:10.260Z,0.93
2022-08-02T12:39:14.289Z,1.00
2022-08-02T12:43:19.293Z,0.80
2022-08-02T12:47:21.977Z,0.90
2022-08-02T12:51:57.705Z,0.80
2022-08-02T12:56:03.328Z,0.70
2022-08-02T13:00:06.571Z,0.80
2022-08-02T13:04:13.556Z,0.90
2022-08-02T13:08:16.609Z,0.95
2022-08-02T13:12:18.736Z,0.90
2022-08-02T13:16:31.256Z,0.90
2022-08-02T13:20:33.584Z,0.80
2022-08-02T13:24:39.674Z,0.90
2022-08-02T13:28:57.672Z,0.80
2022-08-02T13:33:01.267Z,0.85
2022-08-02T13:37:04.363Z,0.80
2022-08-02T13:41:09.301Z,0.80
2022-08-02T13:45:12.837Z,0.90
2022-08-02T13:49:19.980Z,1.10
2022-08-02T13:53:24.663Z,0.90
2022-08-02T13:57:26.701Z,1.00
2022-08-02T14:01:28.861Z,1.40
2022-08-02T14:05:47.209Z,0.90
2022-08-02T14:09:50.720Z,0.80
2022-08-02T14:13:52.734Z,0.90
2022-08-02T14:17:54.749Z,1.10
2022-08-02T14:22:10.993Z,0.90
2022-08-02T14:26:27.194Z,1.30
2022-08-02T14:30:30.250Z,1.00
2022-08-02T14:34:32.353Z,0.77
2022-08-02T14:38:36.353Z,0.75
2022-08-02T14:42:38.378Z,0.80
2022-08-02T14:46:41.506Z,0.90
2022-08-02T14:50:43.614Z,0.75
2022-08-02T14:54:46.701Z,1.00
2022-08-02T14:58:49.083Z,0.90
2022-08-02T15:02:51.100Z,1.00
2022-08-02T15:06:53.729Z,0.90
2022-08-02T15:10:55.762Z,0.80
2022-08-02T15:14:58.830Z,0.95
2022-08-02T15:19:06.422Z,0.80
2022-08-02T15:23:08.685Z,0.85
2022-08-02T15:27:13.970Z,0.80
2022-08-02T15:31:32.778Z,0.90
2022-08-02T15:35:35.166Z,0.82
2022-08-02T15:39:37.310Z,0.70
2022-08-02T15:43:59.901Z,0.98
2022-08-02T15:48:01.406Z,0.90
2022-08-02T15:52:05.490Z,1.05
2022-08-02T15:56:12.796Z,0.80
2022-08-02T16:00:18.936Z,0.95
2022-08-02T16:04:21.307Z,1.25
2022-08-02T16:08:23.342Z,0.90
2022-08-02T16:12:32.286Z,0.95
2022-08-02T16:16:36.793Z,1.02
2022-08-02T16:20:38.928Z,0.80
2022-08-02T16:24:41.085Z,1.10
2022-08-02T16:28:43.279Z,1.00
2022-08-02T16:32:45.337Z,0.90
2022-08-02T16:36:47.443Z,1.00
2022-08-02T16:40:49.474Z,1.05
2022-08-02T16:44:53.472Z,1.13
2022-08-02T16:48:55.955Z,0.93
2022-08-02T16:52:58.887Z,0.98
2022-08-02T16:57:03.181Z,0.90
2022-08-02T17:01:05.585Z,1.00
2022-08-02T17:05:13.519Z,1.20
2022-08-02T17:10:04.297Z,1.10
2022-08-02T17:13:38.307Z,1.20
2022-08-02T17:17:42.154Z,1.30
2022-08-02T17:21:45.464Z,1.38
2022-08-02T17:25:52.327Z,1.45
2022-08-02T17:29:55.290Z,1.00
2022-08-02T17:33:58.433Z,0.93
2022-08-02T17:38:00.692Z,2.05
2022-08-02T17:42:04.647Z,1.50
2022-08-02T17:46:06.843Z,0.90
2022-08-02T17:54:32.230Z,1.00
2022-08-02T17:58:34.339Z,1.67
2022-08-02T18:02:36.671Z,1.65
2022-08-02T18:06:39.719Z,1.17
2022-08-02T18:10:42.057Z,1.38
2022-08-02T18:14:49.152Z,1.30
2022-08-02T18:18:51.511Z,1.45
2022-08-02T18:22:58.546Z,1.60
2022-08-02T18:27:00.998Z,1.95
2022-08-02T18:31:06.540Z,2.20
2022-08-02T18:35:09.349Z,2.13
2022-08-02T18:39:11.360Z,2.00
2022-08-02T18:43:14.295Z,1.80
2022-08-02T18:47:16.600Z,1.60
2022-08-02T18:51:19.372Z,1.50
2022-08-02T18:56:00.033Z,1.55
2022-08-02T18:59:43.543Z,1.45
2022-08-02T19:03:53.557Z,1.75
2022-08-02T19:07:55.570Z,1.52
2022-08-02T19:11:57.612Z,1.80
2022-08-02T19:15:59.708Z,1.42
2022-08-02T19:20:02.470Z,1.50
2022-08-02T19:24:04.733Z,1.55
2022-08-02T19:28:06.961Z,1.52
2022-08-02T19:32:42.984Z,1.60
2022-08-02T19:36:32.573Z,1.70
2022-08-02T19:40:38.503Z,1.60
2022-08-02T19:44:44.831Z,1.73
2022-08-02T19:48:47.477Z,1.95
2022-08-02T19:52:49.608Z,2.33
2022-08-02T19:56:54.971Z,2.05
2022-08-02T20:00:59.011Z,1.70
2022-08-02T20:05:08.029Z,1.60
2022-08-02T20:09:21.360Z,1.80
2022-08-02T20:13:24.650Z,1.80
2022-08-02T20:17:31.473Z,1.90
2022-08-02T20:21:35.942Z,1.77
2022-08-02T20:25:39.070Z,1.45
2022-08-02T20:29:49.852Z,2.00
2022-08-02T20:33:55.967Z,1.50
2022-08-02T20:38:01.627Z,1.80
2022-08-02T20:42:22.557Z,1.48
2022-08-02T20:46:26.331Z,1.95
2022-08-02T20:50:49.340Z,1.52
2022-08-02T20:54:52.839Z,2.22
2022-08-02T20:58:55.745Z,1.70
2022-08-02T21:03:07.374Z,1.90
2022-08-02T21:07:11.574Z,1.80
2022-08-02T21:11:15.190Z,1.55
2022-08-02T21:15:17.356Z,1.67
2022-08-02T21:19:19.369Z,1.88
2022-08-02T21:23:24.166Z,1.60
2022-08-02T21:27:53.136Z,1.75
2022-08-02T21:31:48.712Z,1.67
2022-08-02T21:35:53.208Z,1.60
2022-08-02T21:39:55.311Z,1.88
2022-08-02T21:44:01.785Z,1.67
2022-08-02T21:48:08.256Z,1.80
2022-08-02T21:52:10.451Z,1.88
2022-08-02T21:56:12.510Z,1.80
2022-08-02T22:00:14.943Z,1.98
2022-08-02T22:04:17.111Z,2.10
2022-08-02T22:08:19.246Z,1.73
2022-08-02T22:12:21.897Z,1.98
2022-08-02T22:16:28.274Z,1.90
2022-08-02T22:20:31.180Z,1.80
2022-08-02T22:24:33.241Z,1.90
2022-08-02T22:28:50.360Z,1.90
2022-08-02T22:33:15.206Z,1.63
2022-08-02T22:38:14.632Z,1.90
2022-08-02T22:42:01.267Z,1.80
2022-08-02T22:46:02.450Z,2.05
2022-08-02T22:50:04.987Z,2.10
2022-08-02T22:54:11.814Z,1.70
2022-08-02T22:58:14.196Z,2.20
2022-08-02T22:58:40.626Z,1.20
2022-08-02T23:02:21.607Z,1.90
2022-08-02T23:06:27.091Z,2.15
2022-08-02T23:10:29.149Z,1.98
2022-08-02T23:14:31.315Z,1.95
2022-08-02T23:18:52.040Z,1.90
2022-08-02T23:22:55.778Z,2.03
2022-08-02T23:26:57.917Z,2.00
2022-08-02T23:31:00.008Z,2.10
2022-08-02T23:35:02.085Z,1.73
2022-08-02T23:39:04.191Z,1.90
2022-08-02T23:43:15.047Z,2.00
2022-08-02T23:47:18.042Z,2.05
2022-08-02T23:51:21.985Z,1.77
2022-08-02T23:55:24.419Z,2.05
2022-08-02T23:59:26.449Z,1.90
